Aydin, Turkey
Current Conditions -  °F | °C
As of 10:50 PM on Saturday 20 Dec 2014 (Local Time) from LTFE Reporting Station
Clear Clear  
Wind Chill: 42°   Ceiling: Unl
Heat Index: 45°   Visibility: 6mi
Dew Point: 43°   Wind: 5mph
Humidity: 93%   Direction: 120°ESE
Pressure: 30.18"   Gusts: NA
Location:  37.86°N, 27.84°E
Report Text: LTFE 201950Z 12004KT CAVOK 07/06 Q1022 NOSIG
Loading
Personal Weather Stations






























Interactive Weather Map New forecast layout! Learn more

10-Day Weather Forecast

Advertisements
Track Severe Weather on mobile